sensor_id;sensor_type;location;lat;lon;timestamp;P1;durP1;ratioP1;P2;durP2;ratioP2
2386;SDS011;49473;50.772;8.768;2024-03-23T00:55:01;13.97;;;11.80;;
2386;SDS011;49473;50.772;8.768;2024-03-23T00:57:27;16.60;;;12.33;;
2386;SDS011;49473;50.772;8.768;2024-03-23T00:59:54;17.60;;;11.73;;
2386;SDS011;49473;50.772;8.768;2024-03-23T01:02:20;14.57;;;11.80;;
2386;SDS011;49473;50.772;8.768;2024-03-23T01:04:47;15.97;;;11.87;;
2386;SDS011;49473;50.772;8.768;2024-03-23T01:07:12;17.07;;;13.30;;
2386;SDS011;49473;50.772;8.768;2024-03-23T01:09:39;15.13;;;12.07;;
2386;SDS011;49473;50.772;8.768;2024-03-23T01:12:06;19.70;;;13.60;;
2386;SDS011;49473;50.772;8.768;2024-03-23T01:14:33;15.47;;;11.90;;
2386;SDS011;49473;50.772;8.768;2024-03-23T01:17:01;18.60;;;13.13;;
2386;SDS011;49473;50.772;8.768;2024-03-23T01:19:27;16.30;;;12.20;;
2386;SDS011;49473;50.772;8.768;2024-03-23T01:21:53;16.33;;;12.67;;
2386;SDS011;49473;50.772;8.768;2024-03-23T01:24:20;17.40;;;11.67;;
2386;SDS011;49473;50.772;8.768;2024-03-23T01:26:46;17.87;;;11.97;;
2386;SDS011;49473;50.772;8.768;2024-03-23T01:29:14;16.10;;;11.97;;
2386;SDS011;49473;50.772;8.768;2024-03-23T01:31:39;16.83;;;12.57;;
2386;SDS011;49473;50.772;8.768;2024-03-23T01:34:06;14.40;;;12.17;;
2386;SDS011;49473;50.772;8.768;2024-03-23T01:36:32;18.33;;;13.27;;
2386;SDS011;49473;50.772;8.768;2024-03-23T01:38:59;19.47;;;12.70;;
2386;SDS011;49473;50.772;8.768;2024-03-23T01:41:25;14.87;;;13.17;;
2386;SDS011;49473;50.772;8.768;2024-03-23T01:43:52;17.53;;;13.73;;
2386;SDS011;49473;50.772;8.768;2024-03-23T01:46:21;16.33;;;12.60;;
2386;SDS011;49473;50.772;8.768;2024-03-23T01:48:48;15.10;;;12.20;;
2386;SDS011;49473;50.772;8.768;2024-03-23T01:51:15;16.50;;;13.33;;
2386;SDS011;49473;50.772;8.768;2024-03-23T01:53:42;13.93;;;12.40;;
2386;SDS011;49473;50.772;8.768;2024-03-23T01:56:08;17.60;;;12.83;;
2386;SDS011;49473;50.772;8.768;2024-03-23T01:58:34;18.27;;;13.00;;
2386;SDS011;49473;50.772;8.768;2024-03-23T02:01:00;14.50;;;11.57;;
2386;SDS011;49473;50.772;8.768;2024-03-23T02:03:28;17.37;;;13.37;;
2386;SDS011;49473;50.772;8.768;2024-03-23T02:05:54;13.17;;;11.23;;
2386;SDS011;49473;50.772;8.768;2024-03-23T02:08:22;20.10;;;13.73;;
2386;SDS011;49473;50.772;8.768;2024-03-23T02:10:48;13.77;;;11.80;;
2386;SDS011;49473;50.772;8.768;2024-03-23T02:13:15;15.93;;;12.20;;
2386;SDS011;49473;50.772;8.768;2024-03-23T02:15:41;13.20;;;11.80;;
2386;SDS011;49473;50.772;8.768;2024-03-23T02:18:09;13.10;;;11.73;;
2386;SDS011;49473;50.772;8.768;2024-03-23T02:20:37;13.10;;;11.40;;
2386;SDS011;49473;50.772;8.768;2024-03-23T02:23:05;14.43;;;11.60;;
2386;SDS011;49473;50.772;8.768;2024-03-23T02:25:37;13.87;;;11.90;;
2386;SDS011;49473;50.772;8.768;2024-03-23T02:28:04;14.03;;;12.37;;
2386;SDS011;49473;50.772;8.768;2024-03-23T02:30:30;13.90;;;11.17;;
2386;SDS011;49473;50.772;8.768;2024-03-23T02:32:57;15.37;;;11.90;;
2386;SDS011;49473;50.772;8.768;2024-03-23T02:35:23;16.57;;;12.77;;
2386;SDS011;49473;50.772;8.768;2024-03-23T02:37:50;15.00;;;11.70;;
2386;SDS011;49473;50.772;8.768;2024-03-23T02:40:18;12.27;;;10.17;;
2386;SDS011;49473;50.772;8.768;2024-03-23T02:42:46;12.20;;;9.60;;
2386;SDS011;49473;50.772;8.768;2024-03-23T02:45:12;13.13;;;10.50;;
2386;SDS011;49473;50.772;8.768;2024-03-23T02:47:38;13.30;;;10.63;;
2386;SDS011;49473;50.772;8.768;2024-03-23T02:50:04;12.33;;;11.00;;
2386;SDS011;49473;50.772;8.768;2024-03-23T02:52:32;14.43;;;11.70;;
2386;SDS011;49473;50.772;8.768;2024-03-23T02:54:58;12.93;;;11.17;;
2386;SDS011;49473;50.772;8.768;2024-03-23T02:57:26;13.27;;;11.30;;
2386;SDS011;49473;50.772;8.768;2024-03-23T02:59:51;12.07;;;10.50;;
2386;SDS011;49473;50.772;8.768;2024-03-23T03:02:18;15.33;;;11.00;;
2386;SDS011;49473;50.772;8.768;2024-03-23T03:04:45;11.10;;;9.90;;
2386;SDS011;49473;50.772;8.768;2024-03-23T03:07:11;12.37;;;11.00;;
2386;SDS011;49473;50.772;8.768;2024-03-23T03:09:37;13.30;;;10.80;;
2386;SDS011;49473;50.772;8.768;2024-03-23T03:12:04;11.87;;;10.60;;
2386;SDS011;49473;50.772;8.768;2024-03-23T03:14:31;16.07;;;10.97;;
2386;SDS011;49473;50.772;8.768;2024-03-23T03:16:58;12.00;;;10.80;;
2386;SDS011;49473;50.772;8.768;2024-03-23T03:19:24;17.03;;;12.37;;
2386;SDS011;49473;50.772;8.768;2024-03-23T03:21:51;20.13;;;13.23;;
2386;SDS011;49473;50.772;8.768;2024-03-23T03:24:17;16.73;;;12.47;;
2386;SDS011;49473;50.772;8.768;2024-03-23T03:26:43;14.50;;;12.53;;
2386;SDS011;49473;50.772;8.768;2024-03-23T03:29:09;14.73;;;12.13;;
2386;SDS011;49473;50.772;8.768;2024-03-23T03:31:38;16.43;;;13.23;;
2386;SDS011;49473;50.772;8.768;2024-03-23T03:34:04;15.13;;;12.90;;
2386;SDS011;49473;50.772;8.768;2024-03-23T03:36:31;15.80;;;13.23;;
2386;SDS011;49473;50.772;8.768;2024-03-23T03:38:56;12.90;;;11.30;;
2386;SDS011;49473;50.772;8.768;2024-03-23T03:41:23;9.80;;;8.20;;
2386;SDS011;49473;50.772;8.768;2024-03-23T03:43:49;5.67;;;5.17;;
2386;SDS011;49473;50.772;8.768;2024-03-23T03:46:15;4.00;;;2.77;;
2386;SDS011;49473;50.772;8.768;2024-03-23T03:48:43;2.90;;;2.47;;
2386;SDS011;49473;50.772;8.768;2024-03-23T03:51:10;1.23;;;1.13;;
2386;SDS011;49473;50.772;8.768;2024-03-23T03:53:36;2.00;;;1.33;;
2386;SDS011;49473;50.772;8.768;2024-03-23T03:56:03;1.17;;;1.07;;
2386;SDS011;49473;50.772;8.768;2024-03-23T03:58:28;1.87;;;1.23;;
2386;SDS011;49473;50.772;8.768;2024-03-23T04:00:55;5.07;;;1.03;;
2386;SDS011;49473;50.772;8.768;2024-03-23T04:03:21;1.37;;;1.27;;
2386;SDS011;49473;50.772;8.768;2024-03-23T04:05:51;1.57;;;1.10;;
2386;SDS011;49473;50.772;8.768;2024-03-23T04:08:17;1.00;;;0.90;;
2386;SDS011;49473;50.772;8.768;2024-03-23T04:10:44;1.13;;;1.03;;
2386;SDS011;49473;50.772;8.768;2024-03-23T04:13:10;3.27;;;1.40;;
2386;SDS011;49473;50.772;8.768;2024-03-23T04:15:37;1.40;;;1.30;;
2386;SDS011;49473;50.772;8.768;2024-03-23T04:18:03;2.83;;;1.40;;
2386;SDS011;49473;50.772;8.768;2024-03-23T04:20:30;1.27;;;1.17;;
2386;SDS011;49473;50.772;8.768;2024-03-23T04:22:58;2.60;;;0.80;;
2386;SDS011;49473;50.772;8.768;2024-03-23T04:25:25;1.67;;;0.83;;
2386;SDS011;49473;50.772;8.768;2024-03-23T04:27:51;0.90;;;0.90;;
2386;SDS011;49473;50.772;8.768;2024-03-23T04:30:17;2.57;;;0.83;;
2386;SDS011;49473;50.772;8.768;2024-03-23T04:32:44;1.03;;;0.80;;
2386;SDS011;49473;50.772;8.768;2024-03-23T04:35:11;0.90;;;0.90;;
2386;SDS011;49473;50.772;8.768;2024-03-23T04:37:36;0.87;;;0.70;;
2386;SDS011;49473;50.772;8.768;2024-03-23T04:40:07;0.60;;;0.60;;
2386;SDS011;49473;50.772;8.768;2024-03-23T04:42:34;0.63;;;0.53;;
2386;SDS011;49473;50.772;8.768;2024-03-23T04:45:01;0.90;;;0.57;;
2386;SDS011;49473;50.772;8.768;2024-03-23T04:47:28;0.53;;;0.50;;
2386;SDS011;49473;50.772;8.768;2024-03-23T04:49:55;0.47;;;0.47;;
2386;SDS011;49473;50.772;8.768;2024-03-23T04:52:21;0.70;;;0.43;;
2386;SDS011;49473;50.772;8.768;2024-03-23T04:54:49;0.50;;;0.50;;
2386;SDS011;49473;50.772;8.768;2024-03-23T04:57:16;0.80;;;0.57;;
2386;SDS011;49473;50.772;8.768;2024-03-23T04:59:43;1.00;;;0.60;;
2386;SDS011;49473;50.772;8.768;2024-03-23T05:02:09;0.40;;;0.40;;
2386;SDS011;49473;50.772;8.768;2024-03-23T05:04:36;1.50;;;0.50;;
2386;SDS011;49473;50.772;8.768;2024-03-23T05:07:02;0.40;;;0.40;;
2386;SDS011;49473;50.772;8.768;2024-03-23T05:09:29;0.40;;;0.40;;
2386;SDS011;49473;50.772;8.768;2024-03-23T05:11:55;0.30;;;0.30;;
2386;SDS011;49473;50.772;8.768;2024-03-23T05:14:23;0.40;;;0.40;;
2386;SDS011;49473;50.772;8.768;2024-03-23T05:16:49;0.40;;;0.40;;
2386;SDS011;49473;50.772;8.768;2024-03-23T05:19:16;0.40;;;0.40;;
2386;SDS011;49473;50.772;8.768;2024-03-23T05:21:42;0.60;;;0.40;;
2386;SDS011;49473;50.772;8.768;2024-03-23T05:24:08;1.27;;;0.40;;
2386;SDS011;49473;50.772;8.768;2024-03-23T05:26:34;0.70;;;0.60;;
2386;SDS011;49473;50.772;8.768;2024-03-23T05:29:01;0.50;;;0.40;;
2386;SDS011;49473;50.772;8.768;2024-03-23T05:31:29;0.60;;;0.40;;
2386;SDS011;49473;50.772;8.768;2024-03-23T05:33:56;2.67;;;0.40;;
2386;SDS011;49473;50.772;8.768;2024-03-23T05:36:23;0.40;;;0.40;;
2386;SDS011;49473;50.772;8.768;2024-03-23T05:38:50;0.40;;;0.40;;
2386;SDS011;49473;50.772;8.768;2024-03-23T05:41:15;0.40;;;0.30;;
2386;SDS011;49473;50.772;8.768;2024-03-23T05:43:42;0.40;;;0.30;;
2386;SDS011;49473;50.772;8.768;2024-03-23T05:46:08;0.30;;;0.30;;
2386;SDS011;49473;50.772;8.768;2024-03-23T05:48:36;0.60;;;0.40;;
2386;SDS011;49473;50.772;8.768;2024-03-23T05:51:02;0.40;;;0.30;;
2386;SDS011;49473;50.772;8.768;2024-03-23T05:53:29;0.70;;;0.30;;
2386;SDS011;49473;50.772;8.768;2024-03-23T05:56:00;0.50;;;0.50;;
2386;SDS011;49473;50.772;8.768;2024-03-23T05:58:28;0.40;;;0.40;;
2386;SDS011;49473;50.772;8.768;2024-03-23T06:00:56;0.50;;;0.40;;
2386;SDS011;49473;50.772;8.768;2024-03-23T06:03:24;0.77;;;0.30;;
2386;SDS011;49473;50.772;8.768;2024-03-23T06:05:51;0.40;;;0.30;;
2386;SDS011;49473;50.772;8.768;2024-03-23T06:08:19;0.40;;;0.40;;
2386;SDS011;49473;50.772;8.768;2024-03-23T06:10:44;0.40;;;0.40;;
2386;SDS011;49473;50.772;8.768;2024-03-23T06:13:11;0.50;;;0.50;;
2386;SDS011;49473;50.772;8.768;2024-03-23T06:15:37;0.53;;;0.40;;
2386;SDS011;49473;50.772;8.768;2024-03-23T06:18:04;0.30;;;0.30;;
2386;SDS011;49473;50.772;8.768;2024-03-23T06:20:31;0.43;;;0.43;;
2386;SDS011;49473;50.772;8.768;2024-03-23T06:22:59;0.77;;;0.60;;
2386;SDS011;49473;50.772;8.768;2024-03-23T06:25:25;0.43;;;0.40;;
2386;SDS011;49473;50.772;8.768;2024-03-23T06:27:52;0.50;;;0.50;;
2386;SDS011;49473;50.772;8.768;2024-03-23T06:30:18;0.40;;;0.40;;
2386;SDS011;49473;50.772;8.768;2024-03-23T06:32:44;0.53;;;0.40;;
2386;SDS011;49473;50.772;8.768;2024-03-23T06:35:10;0.73;;;0.50;;
2386;SDS011;49473;50.772;8.768;2024-03-23T06:37:37;0.40;;;0.40;;
2386;SDS011;49473;50.772;8.768;2024-03-23T06:40:06;1.10;;;0.60;;
2386;SDS011;49473;50.772;8.768;2024-03-23T06:42:35;0.77;;;0.63;;
2386;SDS011;49473;50.772;8.768;2024-03-23T06:45:00;6.60;;;0.60;;
2386;SDS011;49473;50.772;8.768;2024-03-23T06:47:28;1.17;;;0.80;;
2386;SDS011;49473;50.772;8.768;2024-03-23T06:49:54;0.50;;;0.50;;
2386;SDS011;49473;50.772;8.768;2024-03-23T06:52:20;1.20;;;1.10;;
2386;SDS011;49473;50.772;8.768;2024-03-23T06:54:47;0.47;;;0.47;;
2386;SDS011;49473;50.772;8.768;2024-03-23T06:57:14;0.60;;;0.60;;
2386;SDS011;49473;50.772;8.768;2024-03-23T06:59:40;0.87;;;0.70;;
2386;SDS011;49473;50.772;8.768;2024-03-23T07:02:06;1.17;;;0.70;;
2386;SDS011;49473;50.772;8.768;2024-03-23T07:04:34;0.73;;;0.70;;
2386;SDS011;49473;50.772;8.768;2024-03-23T07:06:59;0.83;;;0.60;;
2386;SDS011;49473;50.772;8.768;2024-03-23T07:09:26;1.80;;;0.70;;
2386;SDS011;49473;50.772;8.768;2024-03-23T07:11:53;0.83;;;0.60;;
2386;SDS011;49473;50.772;8.768;2024-03-23T07:14:22;1.23;;;0.50;;
2386;SDS011;49473;50.772;8.768;2024-03-23T07:16:49;0.90;;;0.80;;
2386;SDS011;49473;50.772;8.768;2024-03-23T07:19:16;1.10;;;1.00;;
2386;SDS011;49473;50.772;8.768;2024-03-23T07:21:42;1.43;;;0.93;;
2386;SDS011;49473;50.772;8.768;2024-03-23T07:24:09;1.13;;;0.77;;
2386;SDS011;49473;50.772;8.768;2024-03-23T07:26:35;1.40;;;0.90;;
2386;SDS011;49473;50.772;8.768;2024-03-23T07:29:03;0.73;;;0.70;;
2386;SDS011;49473;50.772;8.768;2024-03-23T07:31:31;1.00;;;0.90;;
2386;SDS011;49473;50.772;8.768;2024-03-23T07:33:57;1.47;;;1.37;;
2386;SDS011;49473;50.772;8.768;2024-03-23T07:36:23;1.10;;;1.00;;
2386;SDS011;49473;50.772;8.768;2024-03-23T07:38:50;1.43;;;1.33;;
2386;SDS011;49473;50.772;8.768;2024-03-23T07:41:17;2.87;;;1.17;;
2386;SDS011;49473;50.772;8.768;2024-03-23T07:43:44;1.43;;;1.33;;
2386;SDS011;49473;50.772;8.768;2024-03-23T07:46:10;1.53;;;1.13;;
2386;SDS011;49473;50.772;8.768;2024-03-23T07:48:39;2.93;;;1.67;;
2386;SDS011;49473;50.772;8.768;2024-03-23T07:51:07;1.40;;;1.30;;
2386;SDS011;49473;50.772;8.768;2024-03-23T07:53:35;2.00;;;1.23;;
2386;SDS011;49473;50.772;8.768;2024-03-23T07:56:02;2.60;;;1.20;;
2386;SDS011;49473;50.772;8.768;2024-03-23T07:58:31;1.97;;;1.53;;
2386;SDS011;49473;50.772;8.768;2024-03-23T08:01:03;2.40;;;1.50;;
2386;SDS011;49473;50.772;8.768;2024-03-23T08:03:32;2.30;;;1.60;;
2386;SDS011;49473;50.772;8.768;2024-03-23T08:06:07;1.60;;;1.50;;
2386;SDS011;49473;50.772;8.768;2024-03-23T08:08:34;2.77;;;1.80;;
2386;SDS011;49473;50.772;8.768;2024-03-23T08:11:00;3.43;;;1.60;;
2386;SDS011;49473;50.772;8.768;2024-03-23T08:13:27;5.03;;;1.50;;
2386;SDS011;49473;50.772;8.768;2024-03-23T08:15:55;1.93;;;1.50;;
2386;SDS011;49473;50.772;8.768;2024-03-23T08:18:23;5.20;;;2.30;;
2386;SDS011;49473;50.772;8.768;2024-03-23T08:20:54;3.23;;;2.23;;
2386;SDS011;49473;50.772;8.768;2024-03-23T08:23:23;4.53;;;2.73;;
2386;SDS011;49473;50.772;8.768;2024-03-23T08:25:49;2.40;;;2.20;;
2386;SDS011;49473;50.772;8.768;2024-03-23T08:28:17;3.73;;;2.60;;
2386;SDS011;49473;50.772;8.768;2024-03-23T08:30:43;6.80;;;4.50;;
2386;SDS011;49473;50.772;8.768;2024-03-23T08:33:09;6.97;;;4.23;;
2386;SDS011;49473;50.772;8.768;2024-03-23T08:35:35;5.23;;;4.73;;
2386;SDS011;49473;50.772;8.768;2024-03-23T08:38:02;7.73;;;5.20;;
2386;SDS011;49473;50.772;8.768;2024-03-23T08:40:29;7.50;;;5.20;;
2386;SDS011;49473;50.772;8.768;2024-03-23T08:42:56;6.47;;;5.70;;
2386;SDS011;49473;50.772;8.768;2024-03-23T08:45:22;9.63;;;5.10;;
2386;SDS011;49473;50.772;8.768;2024-03-23T08:47:50;7.93;;;4.80;;
2386;SDS011;49473;50.772;8.768;2024-03-23T08:50:16;10.77;;;5.00;;
2386;SDS011;49473;50.772;8.768;2024-03-23T08:52:43;6.57;;;4.50;;
2386;SDS011;49473;50.772;8.768;2024-03-23T08:55:08;8.67;;;5.40;;
2386;SDS011;49473;50.772;8.768;2024-03-23T08:57:37;6.63;;;5.70;;
2386;SDS011;49473;50.772;8.768;2024-03-23T09:00:03;6.77;;;5.63;;
2386;SDS011;49473;50.772;8.768;2024-03-23T09:02:31;7.30;;;5.60;;
2386;SDS011;49473;50.772;8.768;2024-03-23T09:04:56;8.30;;;5.43;;
2386;SDS011;49473;50.772;8.768;2024-03-23T09:07:29;8.73;;;6.03;;
2386;SDS011;49473;50.772;8.768;2024-03-23T09:09:55;7.90;;;5.77;;
2386;SDS011;49473;50.772;8.768;2024-03-23T09:12:22;7.33;;;5.27;;
2386;SDS011;49473;50.772;8.768;2024-03-23T09:14:49;7.77;;;5.80;;
2386;SDS011;49473;50.772;8.768;2024-03-23T09:17:15;8.23;;;4.70;;
2386;SDS011;49473;50.772;8.768;2024-03-23T09:19:43;7.73;;;4.67;;
2386;SDS011;49473;50.772;8.768;2024-03-23T09:22:10;6.10;;;4.53;;
2386;SDS011;49473;50.772;8.768;2024-03-23T09:24:35;6.33;;;4.50;;
2386;SDS011;49473;50.772;8.768;2024-03-23T09:27:02;6.20;;;4.77;;
2386;SDS011;49473;50.772;8.768;2024-03-23T09:29:29;6.90;;;3.77;;
2386;SDS011;49473;50.772;8.768;2024-03-23T09:31:57;6.10;;;3.57;;
2386;SDS011;49473;50.772;8.768;2024-03-23T09:34:22;5.83;;;3.60;;
2386;SDS011;49473;50.772;8.768;2024-03-23T09:36:50;5.27;;;3.40;;
2386;SDS011;49473;50.772;8.768;2024-03-23T09:39:16;5.57;;;3.47;;
2386;SDS011;49473;50.772;8.768;2024-03-23T09:41:43;9.30;;;4.07;;
2386;SDS011;49473;50.772;8.768;2024-03-23T09:44:09;5.90;;;3.10;;
2386;SDS011;49473;50.772;8.768;2024-03-23T09:46:36;5.83;;;3.60;;
2386;SDS011;49473;50.772;8.768;2024-03-23T09:49:04;6.77;;;3.80;;
2386;SDS011;49473;50.772;8.768;2024-03-23T09:51:35;7.40;;;3.87;;
2386;SDS011;49473;50.772;8.768;2024-03-23T09:54:01;10.07;;;3.93;;
2386;SDS011;49473;50.772;8.768;2024-03-23T09:56:27;6.57;;;3.40;;
2386;SDS011;49473;50.772;8.768;2024-03-23T09:58:59;4.60;;;2.80;;
2386;SDS011;49473;50.772;8.768;2024-03-23T10:01:26;4.10;;;2.80;;
2386;SDS011;49473;50.772;8.768;2024-03-23T10:03:54;5.90;;;2.70;;
2386;SDS011;49473;50.772;8.768;2024-03-23T10:06:22;3.70;;;2.33;;
2386;SDS011;49473;50.772;8.768;2024-03-23T10:08:49;4.87;;;2.90;;
2386;SDS011;49473;50.772;8.768;2024-03-23T10:11:16;5.97;;;2.53;;
2386;SDS011;49473;50.772;8.768;2024-03-23T10:13:43;6.43;;;2.77;;
2386;SDS011;49473;50.772;8.768;2024-03-23T10:16:11;6.43;;;3.30;;
2386;SDS011;49473;50.772;8.768;2024-03-23T10:18:37;5.17;;;2.77;;
2386;SDS011;49473;50.772;8.768;2024-03-23T10:21:08;4.80;;;2.23;;
2386;SDS011;49473;50.772;8.768;2024-03-23T10:23:37;7.00;;;2.67;;
2386;SDS011;49473;50.772;8.768;2024-03-23T10:26:12;3.90;;;2.50;;
2386;SDS011;49473;50.772;8.768;2024-03-23T10:28:45;6.60;;;2.40;;
2386;SDS011;49473;50.772;8.768;2024-03-23T10:31:22;4.13;;;2.07;;
2386;SDS011;49473;50.772;8.768;2024-03-23T10:33:48;5.80;;;2.30;;
2386;SDS011;49473;50.772;8.768;2024-03-23T10:36:15;3.10;;;2.37;;
2386;SDS011;49473;50.772;8.768;2024-03-23T10:38:43;4.00;;;2.17;;
2386;SDS011;49473;50.772;8.768;2024-03-23T10:41:10;2.97;;;2.40;;
2386;SDS011;49473;50.772;8.768;2024-03-23T10:43:36;5.83;;;2.47;;
2386;SDS011;49473;50.772;8.768;2024-03-23T10:46:04;4.43;;;2.30;;
2386;SDS011;49473;50.772;8.768;2024-03-23T10:48:30;3.93;;;2.50;;
2386;SDS011;49473;50.772;8.768;2024-03-23T10:50:58;4.13;;;2.13;;
2386;SDS011;49473;50.772;8.768;2024-03-23T10:53:25;4.40;;;2.20;;
2386;SDS011;49473;50.772;8.768;2024-03-23T10:55:54;5.10;;;2.10;;
2386;SDS011;49473;50.772;8.768;2024-03-23T10:58:21;4.90;;;2.50;;
2386;SDS011;49473;50.772;8.768;2024-03-23T11:00:53;4.67;;;2.50;;
2386;SDS011;49473;50.772;8.768;2024-03-23T11:03:32;3.80;;;2.33;;
2386;SDS011;49473;50.772;8.768;2024-03-23T11:06:00;4.33;;;2.07;;
2386;SDS011;49473;50.772;8.768;2024-03-23T11:08:32;4.57;;;2.50;;
2386;SDS011;49473;50.772;8.768;2024-03-23T11:11:20;7.07;;;2.20;;
2386;SDS011;49473;50.772;8.768;2024-03-23T11:13:47;4.30;;;2.53;;
2386;SDS011;49473;50.772;8.768;2024-03-23T11:16:24;2.50;;;1.63;;
2386;SDS011;49473;50.772;8.768;2024-03-23T11:18:53;2.70;;;1.50;;
2386;SDS011;49473;50.772;8.768;2024-03-23T11:24:16;3.47;;;1.87;;
2386;SDS011;49473;50.772;8.768;2024-03-23T11:26:45;5.27;;;1.70;;
2386;SDS011;49473;50.772;8.768;2024-03-23T11:29:11;2.30;;;1.73;;
2386;SDS011;49473;50.772;8.768;2024-03-23T11:31:45;6.20;;;2.27;;
2386;SDS011;49473;50.772;8.768;2024-03-23T11:34:11;2.30;;;1.50;;
2386;SDS011;49473;50.772;8.768;2024-03-23T11:36:38;3.30;;;1.60;;
2386;SDS011;49473;50.772;8.768;2024-03-23T11:39:11;4.87;;;2.30;;
2386;SDS011;49473;50.772;8.768;2024-03-23T11:41:49;1.67;;;1.57;;
2386;SDS011;49473;50.772;8.768;2024-03-23T11:44:16;3.77;;;1.60;;
2386;SDS011;49473;50.772;8.768;2024-03-23T11:46:43;3.03;;;1.40;;
2386;SDS011;49473;50.772;8.768;2024-03-23T11:49:19;1.77;;;1.50;;
2386;SDS011;49473;50.772;8.768;2024-03-23T11:51:48;2.10;;;1.00;;
2386;SDS011;49473;50.772;8.768;2024-03-23T11:54:14;2.50;;;1.33;;
2386;SDS011;49473;50.772;8.768;2024-03-23T11:56:40;1.60;;;0.77;;
2386;SDS011;49473;50.772;8.768;2024-03-23T11:59:29;2.23;;;0.90;;
2386;SDS011;49473;50.772;8.768;2024-03-23T12:01:57;2.57;;;1.03;;
2386;SDS011;49473;50.772;8.768;2024-03-23T12:04:25;1.40;;;0.90;;
2386;SDS011;49473;50.772;8.768;2024-03-23T12:09:39;1.33;;;1.03;;
2386;SDS011;49473;50.772;8.768;2024-03-23T12:12:10;1.60;;;1.10;;
2386;SDS011;49473;50.772;8.768;2024-03-23T12:14:39;3.23;;;1.20;;
2386;SDS011;49473;50.772;8.768;2024-03-23T12:17:10;2.93;;;1.17;;
2386;SDS011;49473;50.772;8.768;2024-03-23T12:19:36;2.30;;;1.30;;
2386;SDS011;49473;50.772;8.768;2024-03-23T12:22:03;1.43;;;1.20;;
2386;SDS011;49473;50.772;8.768;2024-03-23T12:24:29;2.97;;;1.57;;
2386;SDS011;49473;50.772;8.768;2024-03-23T12:26:59;3.13;;;1.40;;
2386;SDS011;49473;50.772;8.768;2024-03-23T12:29:28;2.93;;;1.40;;
2386;SDS011;49473;50.772;8.768;2024-03-23T12:31:56;3.40;;;1.50;;
2386;SDS011;49473;50.772;8.768;2024-03-23T12:34:24;2.87;;;1.73;;
2386;SDS011;49473;50.772;8.768;2024-03-23T12:36:50;1.90;;;1.33;;
2386;SDS011;49473;50.772;8.768;2024-03-23T12:39:16;5.63;;;1.80;;
2386;SDS011;49473;50.772;8.768;2024-03-23T12:41:44;1.63;;;1.50;;
2386;SDS011;49473;50.772;8.768;2024-03-23T12:44:10;2.23;;;0.90;;
2386;SDS011;49473;50.772;8.768;2024-03-23T12:46:38;1.63;;;0.97;;
2386;SDS011;49473;50.772;8.768;2024-03-23T12:49:04;2.27;;;1.17;;
2386;SDS011;49473;50.772;8.768;2024-03-23T12:51:31;2.07;;;0.80;;
2386;SDS011;49473;50.772;8.768;2024-03-23T12:54:03;0.80;;;0.60;;
2386;SDS011;49473;50.772;8.768;2024-03-23T12:56:30;0.80;;;0.80;;
2386;SDS011;49473;50.772;8.768;2024-03-23T13:01:41;1.30;;;0.90;;
2386;SDS011;49473;50.772;8.768;2024-03-23T13:04:07;2.50;;;0.93;;
2386;SDS011;49473;50.772;8.768;2024-03-23T13:06:41;1.17;;;1.00;;
2386;SDS011;49473;50.772;8.768;2024-03-23T13:09:13;2.53;;;1.40;;
2386;SDS011;49473;50.772;8.768;2024-03-23T13:11:39;3.70;;;1.40;;
2386;SDS011;49473;50.772;8.768;2024-03-23T13:14:05;1.53;;;1.23;;
2386;SDS011;49473;50.772;8.768;2024-03-23T13:16:32;3.90;;;1.20;;
2386;SDS011;49473;50.772;8.768;2024-03-23T13:18:59;2.60;;;1.50;;
2386;SDS011;49473;50.772;8.768;2024-03-23T13:21:26;1.17;;;1.07;;
2386;SDS011;49473;50.772;8.768;2024-03-23T13:23:52;4.50;;;1.40;;
2386;SDS011;49473;50.772;8.768;2024-03-23T13:26:19;1.43;;;1.00;;
2386;SDS011;49473;50.772;8.768;2024-03-23T13:28:45;3.60;;;1.60;;
2386;SDS011;49473;50.772;8.768;2024-03-23T13:31:12;4.03;;;1.57;;
2386;SDS011;49473;50.772;8.768;2024-03-23T13:33:38;2.87;;;1.10;;
2386;SDS011;49473;50.772;8.768;2024-03-23T13:36:08;3.07;;;1.10;;
2386;SDS011;49473;50.772;8.768;2024-03-23T13:38:34;1.17;;;1.07;;
2386;SDS011;49473;50.772;8.768;2024-03-23T13:41:01;3.73;;;1.10;;
2386;SDS011;49473;50.772;8.768;2024-03-23T13:43:29;1.50;;;1.03;;
2386;SDS011;49473;50.772;8.768;2024-03-23T13:45:56;1.60;;;0.93;;
2386;SDS011;49473;50.772;8.768;2024-03-23T13:48:23;1.00;;;0.90;;
2386;SDS011;49473;50.772;8.768;2024-03-23T13:50:57;1.77;;;0.97;;
2386;SDS011;49473;50.772;8.768;2024-03-23T13:53:24;1.63;;;1.10;;
2386;SDS011;49473;50.772;8.768;2024-03-23T13:55:51;2.37;;;1.63;;
2386;SDS011;49473;50.772;8.768;2024-03-23T13:58:18;1.37;;;1.20;;
2386;SDS011;49473;50.772;8.768;2024-03-23T14:00:45;3.20;;;1.20;;
2386;SDS011;49473;50.772;8.768;2024-03-23T14:03:10;1.87;;;1.07;;
2386;SDS011;49473;50.772;8.768;2024-03-23T14:05:39;2.40;;;1.50;;
2386;SDS011;49473;50.772;8.768;2024-03-23T14:08:05;1.43;;;1.10;;
2386;SDS011;49473;50.772;8.768;2024-03-23T14:10:33;2.03;;;1.20;;
2386;SDS011;49473;50.772;8.768;2024-03-23T14:13:00;1.40;;;1.00;;
2386;SDS011;49473;50.772;8.768;2024-03-23T14:15:28;3.30;;;1.70;;
2386;SDS011;49473;50.772;8.768;2024-03-23T14:17:55;1.23;;;1.13;;
2386;SDS011;49473;50.772;8.768;2024-03-23T14:20:22;2.00;;;1.20;;
2386;SDS011;49473;50.772;8.768;2024-03-23T14:22:49;2.30;;;1.93;;
2386;SDS011;49473;50.772;8.768;2024-03-23T14:25:16;4.77;;;1.73;;
2386;SDS011;49473;50.772;8.768;2024-03-23T14:27:44;2.10;;;1.63;;
2386;SDS011;49473;50.772;8.768;2024-03-23T14:30:12;3.50;;;2.00;;
2386;SDS011;49473;50.772;8.768;2024-03-23T14:32:39;2.60;;;1.80;;
2386;SDS011;49473;50.772;8.768;2024-03-23T14:35:06;1.90;;;1.37;;
2386;SDS011;49473;50.772;8.768;2024-03-23T14:37:35;1.73;;;1.63;;
2386;SDS011;49473;50.772;8.768;2024-03-23T14:40:03;1.37;;;1.27;;
2386;SDS011;49473;50.772;8.768;2024-03-23T14:42:29;5.17;;;2.17;;
2386;SDS011;49473;50.772;8.768;2024-03-23T14:44:57;1.20;;;1.20;;
2386;SDS011;49473;50.772;8.768;2024-03-23T14:47:23;2.67;;;1.50;;
2386;SDS011;49473;50.772;8.768;2024-03-23T14:49:50;2.33;;;1.50;;
2386;SDS011;49473;50.772;8.768;2024-03-23T14:52:16;2.60;;;1.60;;
2386;SDS011;49473;50.772;8.768;2024-03-23T14:54:43;1.73;;;1.60;;
2386;SDS011;49473;50.772;8.768;2024-03-23T14:57:09;1.50;;;1.40;;
2386;SDS011;49473;50.772;8.768;2024-03-23T14:59:36;2.33;;;1.50;;
2386;SDS011;49473;50.772;8.768;2024-03-23T15:02:04;4.93;;;2.13;;
2386;SDS011;49473;50.772;8.768;2024-03-23T15:04:32;1.47;;;1.37;;
2386;SDS011;49473;50.772;8.768;2024-03-23T15:06:57;2.43;;;1.77;;
2386;SDS011;49473;50.772;8.768;2024-03-23T15:09:24;3.73;;;1.80;;
2386;SDS011;49473;50.772;8.768;2024-03-23T15:11:50;3.50;;;2.17;;
2386;SDS011;49473;50.772;8.768;2024-03-23T15:14:17;1.73;;;1.63;;
2386;SDS011;49473;50.772;8.768;2024-03-23T15:16:42;1.87;;;1.77;;
2386;SDS011;49473;50.772;8.768;2024-03-23T15:19:10;3.07;;;1.90;;
2386;SDS011;49473;50.772;8.768;2024-03-23T15:21:36;2.00;;;1.60;;
2386;SDS011;49473;50.772;8.768;2024-03-23T15:24:03;2.53;;;1.47;;
2386;SDS011;49473;50.772;8.768;2024-03-23T15:26:30;1.63;;;1.43;;
2386;SDS011;49473;50.772;8.768;2024-03-23T15:28:57;2.50;;;1.90;;
2386;SDS011;49473;50.772;8.768;2024-03-23T15:31:38;2.50;;;1.77;;
2386;SDS011;49473;50.772;8.768;2024-03-23T15:34:05;2.30;;;2.10;;
2386;SDS011;49473;50.772;8.768;2024-03-23T15:36:36;2.27;;;2.07;;
2386;SDS011;49473;50.772;8.768;2024-03-23T15:39:04;2.40;;;2.20;;
2386;SDS011;49473;50.772;8.768;2024-03-23T15:41:30;2.03;;;1.93;;
2386;SDS011;49473;50.772;8.768;2024-03-23T15:43:57;4.67;;;1.97;;
2386;SDS011;49473;50.772;8.768;2024-03-23T15:46:23;3.57;;;2.33;;
2386;SDS011;49473;50.772;8.768;2024-03-23T15:48:51;2.30;;;2.10;;
2386;SDS011;49473;50.772;8.768;2024-03-23T15:51:16;2.30;;;1.90;;
2386;SDS011;49473;50.772;8.768;2024-03-23T15:53:45;3.67;;;2.30;;
2386;SDS011;49473;50.772;8.768;2024-03-23T15:56:11;2.60;;;1.97;;
2386;SDS011;49473;50.772;8.768;2024-03-23T15:58:38;2.47;;;1.97;;